sensor_id;sensor_type;location;lat;lon;timestamp;P1;durP1;ratioP1;P2;durP2;ratioP2
64615;SDS011;51027;42.162;24.754;2022-07-29T00:00:59;11.02;;;3.88;;
64615;SDS011;51027;42.162;24.754;2022-07-29T00:03:25;10.10;;;3.70;;
64615;SDS011;51027;42.162;24.754;2022-07-29T00:05:50;13.63;;;3.90;;
64615;SDS011;51027;42.162;24.754;2022-07-29T00:08:18;11.30;;;4.25;;
64615;SDS011;51027;42.162;24.754;2022-07-29T00:10:44;12.10;;;4.32;;
64615;SDS011;51027;42.162;24.754;2022-07-29T00:13:10;11.02;;;4.00;;
64615;SDS011;51027;42.162;24.754;2022-07-29T00:15:35;10.13;;;3.80;;
64615;SDS011;51027;42.162;24.754;2022-07-29T00:18:00;10.50;;;3.80;;
64615;SDS011;51027;42.162;24.754;2022-07-29T00:20:26;9.95;;;3.70;;
64615;SDS011;51027;42.162;24.754;2022-07-29T00:22:51;9.95;;;3.85;;
64615;SDS011;51027;42.162;24.754;2022-07-29T00:25:18;9.55;;;3.92;;
64615;SDS011;51027;42.162;24.754;2022-07-29T00:27:43;10.98;;;3.67;;
64615;SDS011;51027;42.162;24.754;2022-07-29T00:30:11;11.63;;;4.15;;
64615;SDS011;51027;42.162;24.754;2022-07-29T00:32:36;8.98;;;3.58;;
64615;SDS011;51027;42.162;24.754;2022-07-29T00:35:02;13.88;;;3.78;;
64615;SDS011;51027;42.162;24.754;2022-07-29T00:37:46;10.40;;;4.00;;
64615;SDS011;51027;42.162;24.754;2022-07-29T00:40:12;13.00;;;4.60;;
64615;SDS011;51027;42.162;24.754;2022-07-29T00:42:41;12.48;;;4.38;;
64615;SDS011;51027;42.162;24.754;2022-07-29T00:45:10;12.50;;;4.55;;
64615;SDS011;51027;42.162;24.754;2022-07-29T00:47:36;9.82;;;3.80;;
64615;SDS011;51027;42.162;24.754;2022-07-29T00:50:02;10.70;;;4.03;;
64615;SDS011;51027;42.162;24.754;2022-07-29T00:52:29;12.85;;;4.32;;
64615;SDS011;51027;42.162;24.754;2022-07-29T00:54:55;11.57;;;4.30;;
64615;SDS011;51027;42.162;24.754;2022-07-29T00:57:21;9.65;;;3.88;;
64615;SDS011;51027;42.162;24.754;2022-07-29T00:59:47;9.68;;;4.07;;
64615;SDS011;51027;42.162;24.754;2022-07-29T01:02:12;9.55;;;3.80;;
64615;SDS011;51027;42.162;24.754;2022-07-29T01:04:38;15.82;;;4.75;;
64615;SDS011;51027;42.162;24.754;2022-07-29T01:07:04;12.35;;;4.53;;
64615;SDS011;51027;42.162;24.754;2022-07-29T01:09:31;12.63;;;4.80;;
64615;SDS011;51027;42.162;24.754;2022-07-29T01:11:57;14.48;;;5.35;;
64615;SDS011;51027;42.162;24.754;2022-07-29T01:14:24;12.02;;;4.55;;
64615;SDS011;51027;42.162;24.754;2022-07-29T01:25:58;14.45;;;4.90;;
64615;SDS011;51027;42.162;24.754;2022-07-29T01:40:24;13.57;;;5.00;;
64615;SDS011;51027;42.162;24.754;2022-07-29T01:43:20;14.38;;;5.30;;
64615;SDS011;51027;42.162;24.754;2022-07-29T01:45:52;12.13;;;4.90;;
64615;SDS011;51027;42.162;24.754;2022-07-29T01:48:22;13.90;;;4.80;;
64615;SDS011;51027;42.162;24.754;2022-07-29T01:50:57;12.75;;;4.85;;
64615;SDS011;51027;42.162;24.754;2022-07-29T01:53:31;12.85;;;4.75;;
64615;SDS011;51027;42.162;24.754;2022-07-29T01:56:11;12.88;;;4.75;;
64615;SDS011;51027;42.162;24.754;2022-07-29T01:58:38;14.00;;;4.85;;
64615;SDS011;51027;42.162;24.754;2022-07-29T02:01:06;12.70;;;5.18;;
64615;SDS011;51027;42.162;24.754;2022-07-29T02:03:34;14.60;;;5.03;;
64615;SDS011;51027;42.162;24.754;2022-07-29T02:06:03;13.68;;;4.70;;
64615;SDS011;51027;42.162;24.754;2022-07-29T02:08:31;12.57;;;4.63;;
64615;SDS011;51027;42.162;24.754;2022-07-29T02:10:58;12.05;;;4.60;;
64615;SDS011;51027;42.162;24.754;2022-07-29T02:13:25;14.05;;;5.53;;
64615;SDS011;51027;42.162;24.754;2022-07-29T02:15:53;14.77;;;5.43;;
64615;SDS011;51027;42.162;24.754;2022-07-29T02:18:22;15.55;;;5.03;;
64615;SDS011;51027;42.162;24.754;2022-07-29T02:20:50;13.32;;;5.18;;
64615;SDS011;51027;42.162;24.754;2022-07-29T02:23:22;13.35;;;5.30;;
64615;SDS011;51027;42.162;24.754;2022-07-29T02:25:49;16.27;;;5.47;;
64615;SDS011;51027;42.162;24.754;2022-07-29T02:30:44;15.50;;;5.97;;
64615;SDS011;51027;42.162;24.754;2022-07-29T02:33:12;15.95;;;5.68;;
64615;SDS011;51027;42.162;24.754;2022-07-29T02:35:40;15.60;;;5.25;;
64615;SDS011;51027;42.162;24.754;2022-07-29T02:38:09;16.23;;;6.57;;
64615;SDS011;51027;42.162;24.754;2022-07-29T02:40:58;15.63;;;5.65;;
64615;SDS011;51027;42.162;24.754;2022-07-29T02:43:26;14.95;;;5.95;;
64615;SDS011;51027;42.162;24.754;2022-07-29T02:45:52;15.13;;;5.50;;
64615;SDS011;51027;42.162;24.754;2022-07-29T02:48:21;15.25;;;6.45;;
64615;SDS011;51027;42.162;24.754;2022-07-29T02:50:55;15.85;;;5.97;;
64615;SDS011;51027;42.162;24.754;2022-07-29T02:53:29;14.73;;;5.05;;
64615;SDS011;51027;42.162;24.754;2022-07-29T02:58:46;14.98;;;5.22;;
64615;SDS011;51027;42.162;24.754;2022-07-29T03:01:22;15.00;;;6.30;;
64615;SDS011;51027;42.162;24.754;2022-07-29T03:03:49;16.58;;;5.78;;
64615;SDS011;51027;42.162;24.754;2022-07-29T03:06:17;15.57;;;5.63;;
64615;SDS011;51027;42.162;24.754;2022-07-29T03:08:45;15.93;;;5.78;;
64615;SDS011;51027;42.162;24.754;2022-07-29T03:11:12;14.25;;;5.20;;
64615;SDS011;51027;42.162;24.754;2022-07-29T03:13:39;16.30;;;5.35;;
64615;SDS011;51027;42.162;24.754;2022-07-29T03:16:06;16.38;;;5.70;;
64615;SDS011;51027;42.162;24.754;2022-07-29T03:18:33;15.07;;;5.43;;
64615;SDS011;51027;42.162;24.754;2022-07-29T03:21:00;19.40;;;5.90;;
64615;SDS011;51027;42.162;24.754;2022-07-29T03:23:26;15.50;;;5.85;;
64615;SDS011;51027;42.162;24.754;2022-07-29T03:25:53;16.80;;;6.50;;
64615;SDS011;51027;42.162;24.754;2022-07-29T03:28:19;17.73;;;5.90;;
64615;SDS011;51027;42.162;24.754;2022-07-29T03:30:45;15.73;;;5.40;;
64615;SDS011;51027;42.162;24.754;2022-07-29T03:33:11;16.55;;;5.75;;
64615;SDS011;51027;42.162;24.754;2022-07-29T03:35:37;17.45;;;5.90;;
64615;SDS011;51027;42.162;24.754;2022-07-29T03:38:03;15.82;;;5.50;;
64615;SDS011;51027;42.162;24.754;2022-07-29T03:40:43;16.05;;;5.55;;
64615;SDS011;51027;42.162;24.754;2022-07-29T03:43:11;17.27;;;5.57;;
64615;SDS011;51027;42.162;24.754;2022-07-29T03:45:41;15.18;;;5.28;;
64615;SDS011;51027;42.162;24.754;2022-07-29T03:48:10;15.05;;;5.90;;
64615;SDS011;51027;42.162;24.754;2022-07-29T03:50:39;14.20;;;5.40;;
64615;SDS011;51027;42.162;24.754;2022-07-29T03:53:05;15.65;;;6.00;;
64615;SDS011;51027;42.162;24.754;2022-07-29T03:55:32;22.45;;;5.55;;
64615;SDS011;51027;42.162;24.754;2022-07-29T03:58:07;15.80;;;5.85;;
64615;SDS011;51027;42.162;24.754;2022-07-29T04:00:37;14.75;;;5.85;;
64615;SDS011;51027;42.162;24.754;2022-07-29T04:03:04;15.95;;;6.95;;
64615;SDS011;51027;42.162;24.754;2022-07-29T04:05:30;14.73;;;5.57;;
64615;SDS011;51027;42.162;24.754;2022-07-29T04:07:55;15.48;;;5.78;;
64615;SDS011;51027;42.162;24.754;2022-07-29T04:10:21;17.65;;;6.63;;
64615;SDS011;51027;42.162;24.754;2022-07-29T04:12:48;16.67;;;6.40;;
64615;SDS011;51027;42.162;24.754;2022-07-29T04:15:14;16.58;;;6.20;;
64615;SDS011;51027;42.162;24.754;2022-07-29T04:17:39;15.77;;;5.88;;
64615;SDS011;51027;42.162;24.754;2022-07-29T04:20:05;14.70;;;5.65;;
64615;SDS011;51027;42.162;24.754;2022-07-29T04:22:31;16.27;;;6.53;;
64615;SDS011;51027;42.162;24.754;2022-07-29T04:24:56;15.95;;;6.72;;
64615;SDS011;51027;42.162;24.754;2022-07-29T04:27:22;17.02;;;6.15;;
64615;SDS011;51027;42.162;24.754;2022-07-29T04:29:47;18.50;;;7.88;;
64615;SDS011;51027;42.162;24.754;2022-07-29T04:32:13;15.45;;;6.93;;
64615;SDS011;51027;42.162;24.754;2022-07-29T04:34:38;17.55;;;6.88;;
64615;SDS011;51027;42.162;24.754;2022-07-29T04:37:03;14.90;;;6.07;;
64615;SDS011;51027;42.162;24.754;2022-07-29T04:39:29;14.38;;;5.97;;
64615;SDS011;51027;42.162;24.754;2022-07-29T04:41:54;15.63;;;6.45;;
64615;SDS011;51027;42.162;24.754;2022-07-29T04:44:20;16.55;;;6.15;;
64615;SDS011;51027;42.162;24.754;2022-07-29T04:46:46;14.88;;;6.05;;
64615;SDS011;51027;42.162;24.754;2022-07-29T04:49:11;16.83;;;6.05;;
64615;SDS011;51027;42.162;24.754;2022-07-29T04:51:37;16.52;;;6.70;;
64615;SDS011;51027;42.162;24.754;2022-07-29T04:54:02;17.15;;;7.20;;
64615;SDS011;51027;42.162;24.754;2022-07-29T04:56:28;18.23;;;6.90;;
64615;SDS011;51027;42.162;24.754;2022-07-29T04:58:53;16.98;;;6.85;;
64615;SDS011;51027;42.162;24.754;2022-07-29T05:01:19;16.58;;;7.13;;
64615;SDS011;51027;42.162;24.754;2022-07-29T05:03:44;15.60;;;6.32;;
64615;SDS011;51027;42.162;24.754;2022-07-29T05:06:10;16.10;;;6.90;;
64615;SDS011;51027;42.162;24.754;2022-07-29T05:08:36;17.23;;;7.60;;
64615;SDS011;51027;42.162;24.754;2022-07-29T05:11:02;16.42;;;6.78;;
64615;SDS011;51027;42.162;24.754;2022-07-29T05:13:28;15.45;;;6.43;;
64615;SDS011;51027;42.162;24.754;2022-07-29T05:15:54;17.23;;;6.45;;
64615;SDS011;51027;42.162;24.754;2022-07-29T05:18:20;17.27;;;6.40;;
64615;SDS011;51027;42.162;24.754;2022-07-29T05:20:45;15.10;;;6.03;;
64615;SDS011;51027;42.162;24.754;2022-07-29T05:23:11;18.00;;;6.60;;
64615;SDS011;51027;42.162;24.754;2022-07-29T05:25:39;16.92;;;6.82;;
64615;SDS011;51027;42.162;24.754;2022-07-29T05:28:05;16.33;;;6.05;;
64615;SDS011;51027;42.162;24.754;2022-07-29T05:30:31;15.70;;;5.97;;
64615;SDS011;51027;42.162;24.754;2022-07-29T05:32:56;16.38;;;6.57;;
64615;SDS011;51027;42.162;24.754;2022-07-29T05:35:22;14.82;;;6.80;;
64615;SDS011;51027;42.162;24.754;2022-07-29T05:37:47;16.13;;;5.65;;
64615;SDS011;51027;42.162;24.754;2022-07-29T05:40:13;14.65;;;5.43;;
64615;SDS011;51027;42.162;24.754;2022-07-29T05:42:39;15.02;;;5.93;;
64615;SDS011;51027;42.162;24.754;2022-07-29T05:45:04;14.50;;;6.22;;
64615;SDS011;51027;42.162;24.754;2022-07-29T05:47:30;17.60;;;7.47;;
64615;SDS011;51027;42.162;24.754;2022-07-29T05:49:56;14.90;;;6.38;;
64615;SDS011;51027;42.162;24.754;2022-07-29T05:52:22;17.02;;;6.40;;
64615;SDS011;51027;42.162;24.754;2022-07-29T05:54:48;14.93;;;6.43;;
64615;SDS011;51027;42.162;24.754;2022-07-29T05:57:17;15.88;;;6.57;;
64615;SDS011;51027;42.162;24.754;2022-07-29T05:59:44;16.45;;;6.75;;
64615;SDS011;51027;42.162;24.754;2022-07-29T06:02:11;17.73;;;6.70;;
64615;SDS011;51027;42.162;24.754;2022-07-29T06:04:36;17.92;;;6.82;;
64615;SDS011;51027;42.162;24.754;2022-07-29T06:07:02;19.10;;;7.60;;
64615;SDS011;51027;42.162;24.754;2022-07-29T06:09:27;16.50;;;7.18;;
64615;SDS011;51027;42.162;24.754;2022-07-29T06:11:53;16.60;;;7.38;;
64615;SDS011;51027;42.162;24.754;2022-07-29T06:14:18;16.75;;;8.02;;
64615;SDS011;51027;42.162;24.754;2022-07-29T06:16:44;15.70;;;7.07;;
64615;SDS011;51027;42.162;24.754;2022-07-29T06:19:10;18.50;;;7.25;;
64615;SDS011;51027;42.162;24.754;2022-07-29T06:21:35;17.70;;;7.80;;
64615;SDS011;51027;42.162;24.754;2022-07-29T06:24:01;19.15;;;8.88;;
64615;SDS011;51027;42.162;24.754;2022-07-29T06:26:27;17.88;;;9.02;;
64615;SDS011;51027;42.162;24.754;2022-07-29T06:28:52;18.60;;;8.70;;
64615;SDS011;51027;42.162;24.754;2022-07-29T06:31:17;19.25;;;9.40;;
64615;SDS011;51027;42.162;24.754;2022-07-29T06:33:43;17.80;;;9.27;;
64615;SDS011;51027;42.162;24.754;2022-07-29T06:36:08;33.72;;;21.17;;
64615;SDS011;51027;42.162;24.754;2022-07-29T06:38:34;16.77;;;8.80;;
64615;SDS011;51027;42.162;24.754;2022-07-29T06:41:00;17.85;;;8.65;;
64615;SDS011;51027;42.162;24.754;2022-07-29T06:43:33;20.83;;;9.63;;
64615;SDS011;51027;42.162;24.754;2022-07-29T06:46:03;19.70;;;9.52;;
64615;SDS011;51027;42.162;24.754;2022-07-29T06:48:30;18.52;;;9.30;;
64615;SDS011;51027;42.162;24.754;2022-07-29T06:50:56;16.60;;;8.27;;
64615;SDS011;51027;42.162;24.754;2022-07-29T06:53:22;17.30;;;8.20;;
64615;SDS011;51027;42.162;24.754;2022-07-29T06:55:48;18.13;;;9.15;;
64615;SDS011;51027;42.162;24.754;2022-07-29T06:58:13;17.02;;;8.50;;
64615;SDS011;51027;42.162;24.754;2022-07-29T07:00:41;17.27;;;8.60;;
64615;SDS011;51027;42.162;24.754;2022-07-29T07:03:07;16.35;;;8.25;;
64615;SDS011;51027;42.162;24.754;2022-07-29T07:05:32;18.30;;;8.25;;
64615;SDS011;51027;42.162;24.754;2022-07-29T07:07:57;18.17;;;8.45;;
64615;SDS011;51027;42.162;24.754;2022-07-29T07:10:23;17.05;;;8.18;;
64615;SDS011;51027;42.162;24.754;2022-07-29T07:12:48;17.67;;;8.23;;
64615;SDS011;51027;42.162;24.754;2022-07-29T07:15:14;16.92;;;8.07;;
64615;SDS011;51027;42.162;24.754;2022-07-29T07:17:39;17.23;;;8.35;;
64615;SDS011;51027;42.162;24.754;2022-07-29T07:20:05;18.70;;;8.38;;
64615;SDS011;51027;42.162;24.754;2022-07-29T07:22:31;18.77;;;8.27;;
64615;SDS011;51027;42.162;24.754;2022-07-29T07:24:57;17.80;;;7.80;;
64615;SDS011;51027;42.162;24.754;2022-07-29T07:27:22;16.67;;;7.50;;
64615;SDS011;51027;42.162;24.754;2022-07-29T07:29:48;17.92;;;8.23;;
64615;SDS011;51027;42.162;24.754;2022-07-29T07:32:13;20.25;;;8.32;;
64615;SDS011;51027;42.162;24.754;2022-07-29T07:34:41;16.77;;;7.45;;
64615;SDS011;51027;42.162;24.754;2022-07-29T07:37:07;15.75;;;7.72;;
64615;SDS011;51027;42.162;24.754;2022-07-29T07:39:33;16.50;;;7.35;;
64615;SDS011;51027;42.162;24.754;2022-07-29T07:41:58;15.27;;;7.03;;
64615;SDS011;51027;42.162;24.754;2022-07-29T07:44:24;16.48;;;7.32;;
64615;SDS011;51027;42.162;24.754;2022-07-29T07:46:49;23.60;;;14.77;;
64615;SDS011;51027;42.162;24.754;2022-07-29T07:49:15;21.30;;;9.57;;
64615;SDS011;51027;42.162;24.754;2022-07-29T07:51:40;16.45;;;7.68;;
64615;SDS011;51027;42.162;24.754;2022-07-29T07:54:06;17.25;;;7.20;;
64615;SDS011;51027;42.162;24.754;2022-07-29T07:56:31;15.93;;;7.15;;
64615;SDS011;51027;42.162;24.754;2022-07-29T07:58:56;15.85;;;6.20;;
64615;SDS011;51027;42.162;24.754;2022-07-29T08:01:22;16.80;;;6.38;;
64615;SDS011;51027;42.162;24.754;2022-07-29T08:03:48;15.38;;;6.57;;
64615;SDS011;51027;42.162;24.754;2022-07-29T08:06:14;17.73;;;7.10;;
64615;SDS011;51027;42.162;24.754;2022-07-29T08:08:40;14.00;;;6.00;;
64615;SDS011;51027;42.162;24.754;2022-07-29T08:11:06;16.83;;;5.90;;
64615;SDS011;51027;42.162;24.754;2022-07-29T08:13:31;16.85;;;6.10;;
64615;SDS011;51027;42.162;24.754;2022-07-29T08:15:58;15.73;;;5.72;;
64615;SDS011;51027;42.162;24.754;2022-07-29T08:18:26;17.73;;;7.00;;
64615;SDS011;51027;42.162;24.754;2022-07-29T08:20:53;17.30;;;6.38;;
64615;SDS011;51027;42.162;24.754;2022-07-29T08:23:18;16.58;;;6.57;;
64615;SDS011;51027;42.162;24.754;2022-07-29T08:25:44;15.13;;;6.50;;
64615;SDS011;51027;42.162;24.754;2022-07-29T08:28:10;11.55;;;4.57;;
64615;SDS011;51027;42.162;24.754;2022-07-29T08:30:35;13.80;;;4.80;;
64615;SDS011;51027;42.162;24.754;2022-07-29T08:33:01;10.88;;;4.38;;
64615;SDS011;51027;42.162;24.754;2022-07-29T08:35:26;13.63;;;4.70;;
64615;SDS011;51027;42.162;24.754;2022-07-29T08:37:52;13.02;;;4.70;;
64615;SDS011;51027;42.162;24.754;2022-07-29T08:40:21;11.68;;;4.53;;
64615;SDS011;51027;42.162;24.754;2022-07-29T08:42:48;13.88;;;5.07;;
64615;SDS011;51027;42.162;24.754;2022-07-29T08:45:14;11.82;;;4.60;;
64615;SDS011;51027;42.162;24.754;2022-07-29T08:47:40;13.18;;;5.13;;
64615;SDS011;51027;42.162;24.754;2022-07-29T08:50:09;12.55;;;4.50;;
64615;SDS011;51027;42.162;24.754;2022-07-29T08:52:36;15.20;;;5.03;;
64615;SDS011;51027;42.162;24.754;2022-07-29T08:55:07;13.43;;;5.28;;
64615;SDS011;51027;42.162;24.754;2022-07-29T08:57:34;15.95;;;5.15;;
64615;SDS011;51027;42.162;24.754;2022-07-29T09:00:02;12.75;;;4.95;;
64615;SDS011;51027;42.162;24.754;2022-07-29T09:02:32;12.25;;;4.72;;
64615;SDS011;51027;42.162;24.754;2022-07-29T09:05:04;14.20;;;6.22;;
64615;SDS011;51027;42.162;24.754;2022-07-29T09:07:30;10.70;;;4.32;;
64615;SDS011;51027;42.162;24.754;2022-07-29T09:09:55;12.20;;;4.70;;
64615;SDS011;51027;42.162;24.754;2022-07-29T09:12:21;12.85;;;5.10;;
64615;SDS011;51027;42.162;24.754;2022-07-29T09:14:49;12.90;;;4.75;;
64615;SDS011;51027;42.162;24.754;2022-07-29T09:17:15;11.35;;;4.57;;
64615;SDS011;51027;42.162;24.754;2022-07-29T09:19:42;12.95;;;4.82;;
64615;SDS011;51027;42.162;24.754;2022-07-29T09:22:08;12.20;;;4.60;;
64615;SDS011;51027;42.162;24.754;2022-07-29T09:24:39;11.98;;;4.80;;
64615;SDS011;51027;42.162;24.754;2022-07-29T09:27:24;12.35;;;5.07;;
64615;SDS011;51027;42.162;24.754;2022-07-29T09:30:04;11.95;;;5.05;;
64615;SDS011;51027;42.162;24.754;2022-07-29T09:32:53;11.63;;;4.90;;
64615;SDS011;51027;42.162;24.754;2022-07-29T09:35:22;12.73;;;4.72;;
64615;SDS011;51027;42.162;24.754;2022-07-29T09:37:49;12.57;;;5.20;;
64615;SDS011;51027;42.162;24.754;2022-07-29T09:40:16;13.32;;;5.28;;
64615;SDS011;51027;42.162;24.754;2022-07-29T09:42:44;12.90;;;5.05;;
64615;SDS011;51027;42.162;24.754;2022-07-29T09:45:10;10.52;;;4.45;;
64615;SDS011;51027;42.162;24.754;2022-07-29T09:47:46;11.05;;;4.80;;
64615;SDS011;51027;42.162;24.754;2022-07-29T09:50:14;10.93;;;4.68;;
64615;SDS011;51027;42.162;24.754;2022-07-29T09:52:44;11.85;;;4.55;;
64615;SDS011;51027;42.162;24.754;2022-07-29T09:55:12;11.05;;;4.28;;
64615;SDS011;51027;42.162;24.754;2022-07-29T09:57:39;12.68;;;4.82;;
64615;SDS011;51027;42.162;24.754;2022-07-29T10:02:38;12.18;;;5.15;;
64615;SDS011;51027;42.162;24.754;2022-07-29T10:05:05;10.48;;;4.55;;
64615;SDS011;51027;42.162;24.754;2022-07-29T10:10:10;11.13;;;4.53;;
64615;SDS011;51027;42.162;24.754;2022-07-29T10:13:02;12.25;;;5.25;;
64615;SDS011;51027;42.162;24.754;2022-07-29T10:15:39;11.00;;;4.30;;
64615;SDS011;51027;42.162;24.754;2022-07-29T10:18:09;10.52;;;4.50;;
64615;SDS011;51027;42.162;24.754;2022-07-29T10:20:36;16.23;;;7.05;;
64615;SDS011;51027;42.162;24.754;2022-07-29T10:23:02;11.68;;;4.55;;
64615;SDS011;51027;42.162;24.754;2022-07-29T10:25:28;11.70;;;4.40;;
64615;SDS011;51027;42.162;24.754;2022-07-29T10:27:54;11.55;;;4.43;;
64615;SDS011;51027;42.162;24.754;2022-07-29T10:30:21;11.43;;;4.72;;
64615;SDS011;51027;42.162;24.754;2022-07-29T10:32:57;10.80;;;4.50;;
64615;SDS011;51027;42.162;24.754;2022-07-29T10:35:43;13.73;;;5.05;;
64615;SDS011;51027;42.162;24.754;2022-07-29T10:44:06;13.63;;;4.50;;
64615;SDS011;51027;42.162;24.754;2022-07-29T10:46:47;11.98;;;4.70;;
64615;SDS011;51027;42.162;24.754;2022-07-29T10:49:14;12.13;;;5.00;;
64615;SDS011;51027;42.162;24.754;2022-07-29T10:51:50;10.47;;;4.60;;
64615;SDS011;51027;42.162;24.754;2022-07-29T10:57:23;12.07;;;4.65;;
64615;SDS011;51027;42.162;24.754;2022-07-29T11:00:26;12.05;;;4.95;;
64615;SDS011;51027;42.162;24.754;2022-07-29T11:05:05;11.90;;;4.95;;
64615;SDS011;51027;42.162;24.754;2022-07-29T11:07:33;11.70;;;4.80;;
64615;SDS011;51027;42.162;24.754;2022-07-29T11:15:06;12.35;;;5.10;;
64615;SDS011;51027;42.162;24.754;2022-07-29T11:20:42;10.60;;;4.50;;
64615;SDS011;51027;42.162;24.754;2022-07-29T11:28:35;13.27;;;5.20;;
64615;SDS011;51027;42.162;24.754;2022-07-29T11:31:04;15.75;;;5.45;;
64615;SDS011;51027;42.162;24.754;2022-07-29T11:33:33;14.47;;;5.00;;
64615;SDS011;51027;42.162;24.754;2022-07-29T11:38:38;13.68;;;5.07;;
64615;SDS011;51027;42.162;24.754;2022-07-29T11:43:55;10.07;;;4.70;;
64615;SDS011;51027;42.162;24.754;2022-07-29T11:46:42;12.18;;;4.70;;
64615;SDS011;51027;42.162;24.754;2022-07-29T11:49:08;9.57;;;4.18;;
64615;SDS011;51027;42.162;24.754;2022-07-29T11:51:35;14.43;;;5.47;;
64615;SDS011;51027;42.162;24.754;2022-07-29T11:54:02;12.27;;;4.60;;
64615;SDS011;51027;42.162;24.754;2022-07-29T11:56:30;13.02;;;4.72;;
64615;SDS011;51027;42.162;24.754;2022-07-29T11:59:02;10.20;;;4.53;;
64615;SDS011;51027;42.162;24.754;2022-07-29T12:01:31;13.85;;;4.63;;
64615;SDS011;51027;42.162;24.754;2022-07-29T12:04:04;12.55;;;4.70;;
64615;SDS011;51027;42.162;24.754;2022-07-29T12:06:30;11.27;;;4.13;;
64615;SDS011;51027;42.162;24.754;2022-07-29T12:08:56;11.75;;;4.65;;
64615;SDS011;51027;42.162;24.754;2022-07-29T12:11:21;9.88;;;4.43;;
64615;SDS011;51027;42.162;24.754;2022-07-29T12:13:47;11.93;;;4.82;;
64615;SDS011;51027;42.162;24.754;2022-07-29T12:16:13;11.75;;;4.43;;
64615;SDS011;51027;42.162;24.754;2022-07-29T12:18:39;10.63;;;4.53;;
64615;SDS011;51027;42.162;24.754;2022-07-29T12:21:04;12.98;;;4.22;;
64615;SDS011;51027;42.162;24.754;2022-07-29T12:23:30;9.60;;;4.30;;
64615;SDS011;51027;42.162;24.754;2022-07-29T12:25:57;11.68;;;4.57;;
64615;SDS011;51027;42.162;24.754;2022-07-29T12:28:23;12.88;;;4.68;;
64615;SDS011;51027;42.162;24.754;2022-07-29T12:30:49;11.80;;;4.68;;
64615;SDS011;51027;42.162;24.754;2022-07-29T12:35:51;11.55;;;4.43;;
64615;SDS011;51027;42.162;24.754;2022-07-29T12:38:18;11.88;;;4.50;;
64615;SDS011;51027;42.162;24.754;2022-07-29T12:40:45;10.57;;;4.53;;
64615;SDS011;51027;42.162;24.754;2022-07-29T12:43:12;12.35;;;4.50;;
64615;SDS011;51027;42.162;24.754;2022-07-29T12:45:44;10.65;;;4.13;;
64615;SDS011;51027;42.162;24.754;2022-07-29T12:48:13;11.95;;;4.68;;
64615;SDS011;51027;42.162;24.754;2022-07-29T12:50:55;11.93;;;4.65;;
64615;SDS011;51027;42.162;24.754;2022-07-29T12:53:22;12.15;;;4.72;;
64615;SDS011;51027;42.162;24.754;2022-07-29T12:55:49;13.00;;;4.75;;
64615;SDS011;51027;42.162;24.754;2022-07-29T13:00:59;12.85;;;4.63;;
64615;SDS011;51027;42.162;24.754;2022-07-29T13:03:28;12.27;;;4.50;;
64615;SDS011;51027;42.162;24.754;2022-07-29T13:05:54;13.93;;;4.85;;
64615;SDS011;51027;42.162;24.754;2022-07-29T13:08:19;11.52;;;4.80;;
64615;SDS011;51027;42.162;24.754;2022-07-29T13:10:45;12.02;;;4.93;;
64615;SDS011;51027;42.162;24.754;2022-07-29T13:13:14;12.50;;;4.85;;
64615;SDS011;51027;42.162;24.754;2022-07-29T13:15:44;11.38;;;4.90;;
64615;SDS011;51027;42.162;24.754;2022-07-29T13:20:57;13.05;;;5.07;;
64615;SDS011;51027;42.162;24.754;2022-07-29T13:23:36;14.77;;;5.85;;
64615;SDS011;51027;42.162;24.754;2022-07-29T13:26:05;12.43;;;5.60;;
64615;SDS011;51027;42.162;24.754;2022-07-29T13:28:32;15.27;;;4.93;;
64615;SDS011;51027;42.162;24.754;2022-07-29T13:30:57;13.20;;;5.00;;
64615;SDS011;51027;42.162;24.754;2022-07-29T13:33:23;12.20;;;5.20;;
64615;SDS011;51027;42.162;24.754;2022-07-29T13:35:48;12.25;;;4.93;;
64615;SDS011;51027;42.162;24.754;2022-07-29T13:38:14;12.32;;;5.10;;
64615;SDS011;51027;42.162;24.754;2022-07-29T13:40:40;11.80;;;4.90;;
64615;SDS011;51027;42.162;24.754;2022-07-29T13:43:08;11.45;;;4.82;;
64615;SDS011;51027;42.162;24.754;2022-07-29T13:45:34;11.35;;;4.88;;
64615;SDS011;51027;42.162;24.754;2022-07-29T13:48:00;13.32;;;5.10;;
64615;SDS011;51027;42.162;24.754;2022-07-29T13:50:26;14.20;;;4.80;;
64615;SDS011;51027;42.162;24.754;2022-07-29T13:52:52;12.10;;;5.00;;
64615;SDS011;51027;42.162;24.754;2022-07-29T13:55:17;14.27;;;5.47;;
64615;SDS011;51027;42.162;24.754;2022-07-29T13:57:43;10.85;;;4.68;;
64615;SDS011;51027;42.162;24.754;2022-07-29T14:00:09;11.32;;;4.57;;
64615;SDS011;51027;42.162;24.754;2022-07-29T14:02:35;13.63;;;4.90;;
64615;SDS011;51027;42.162;24.754;2022-07-29T14:05:03;12.13;;;4.97;;
64615;SDS011;51027;42.162;24.754;2022-07-29T14:07:30;12.43;;;4.72;;
64615;SDS011;51027;42.162;24.754;2022-07-29T14:09:55;11.50;;;4.97;;
64615;SDS011;51027;42.162;24.754;2022-07-29T14:12:21;11.65;;;5.00;;
64615;SDS011;51027;42.162;24.754;2022-07-29T14:14:47;10.90;;;4.65;;
64615;SDS011;51027;42.162;24.754;2022-07-29T14:17:13;13.35;;;4.70;;
64615;SDS011;51027;42.162;24.754;2022-07-29T14:19:39;10.48;;;4.63;;
64615;SDS011;51027;42.162;24.754;2022-07-29T14:22:05;12.10;;;4.60;;
64615;SDS011;51027;42.162;24.754;2022-07-29T14:24:32;11.32;;;4.45;;
64615;SDS011;51027;42.162;24.754;2022-07-29T14:26:58;9.48;;;4.40;;
64615;SDS011;51027;42.162;24.754;2022-07-29T14:29:24;11.70;;;4.72;;
64615;SDS011;51027;42.162;24.754;2022-07-29T14:31:49;12.85;;;4.50;;
64615;SDS011;51027;42.162;24.754;2022-07-29T14:34:15;10.38;;;4.10;;
64615;SDS011;51027;42.162;24.754;2022-07-29T14:36:40;11.95;;;4.20;;
64615;SDS011;51027;42.162;24.754;2022-07-29T14:39:06;13.77;;;5.50;;
64615;SDS011;51027;42.162;24.754;2022-07-29T14:41:32;10.68;;;4.38;;
64615;SDS011;51027;42.162;24.754;2022-07-29T14:43:58;11.32;;;4.20;;
64615;SDS011;51027;42.162;24.754;2022-07-29T14:46:25;11.45;;;4.18;;
64615;SDS011;51027;42.162;24.754;2022-07-29T14:48:51;13.40;;;4.85;;
64615;SDS011;51027;42.162;24.754;2022-07-29T14:51:17;10.07;;;4.22;;
64615;SDS011;51027;42.162;24.754;2022-07-29T14:53:42;9.80;;;4.05;;
64615;SDS011;51027;42.162;24.754;2022-07-29T14:56:08;10.32;;;4.20;;
64615;SDS011;51027;42.162;24.754;2022-07-29T14:58:34;13.43;;;4.38;;
64615;SDS011;51027;42.162;24.754;2022-07-29T15:01:00;10.88;;;4.32;;
64615;SDS011;51027;42.162;24.754;2022-07-29T15:03:26;9.82;;;4.45;;
64615;SDS011;51027;42.162;24.754;2022-07-29T15:05:52;11.77;;;4.53;;
64615;SDS011;51027;42.162;24.754;2022-07-29T15:08:18;12.15;;;4.63;;
64615;SDS011;51027;42.162;24.754;2022-07-29T15:10:44;10.25;;;4.40;;
64615;SDS011;51027;42.162;24.754;2022-07-29T15:13:09;13.60;;;4.63;;
64615;SDS011;51027;42.162;24.754;2022-07-29T15:15:35;11.57;;;4.45;;
64615;SDS011;51027;42.162;24.754;2022-07-29T15:18:01;13.00;;;4.53;;
64615;SDS011;51027;42.162;24.754;2022-07-29T15:20:26;11.20;;;4.35;;
64615;SDS011;51027;42.162;24.754;2022-07-29T15:22:52;11.43;;;4.55;;
64615;SDS011;51027;42.162;24.754;2022-07-29T15:25:18;11.27;;;4.20;;
64615;SDS011;51027;42.162;24.754;2022-07-29T15:27:43;14.23;;;4.60;;
64615;SDS011;51027;42.162;24.754;2022-07-29T15:30:09;11.40;;;4.68;;
64615;SDS011;51027;42.162;24.754;2022-07-29T15:32:35;9.68;;;4.15;;